Satanta, KS

7:22 AM CDT en Julio 28, 2014 (GMT -0500)
Lobmeyer Seed Farms (KKSGARDE9) Alt 2890 ft | 37.74 °N, 100.85 °W | Change Station

Current weather conditions updated 6 minutes ago

Overcast
Nublado
66.8 ° F
Sensación térmica 66.8 ° F
N
0.0
Viento Variable Viento desde SSO
Gusts 0.0 mph

Hoy se prevé un día Más frío que ayer. Chubascos por la tarde..

Hoy
Alta -- | Baja -- ° F
--% Posibilidad de precipitaciones
Ayer
Alta -- | Baja -- ° F
Precip. -- pul
6:45 AM 8:55 PM
Luna nueva, 2% visible
Presión 30.35 pul
Visibilidad 10.0 Millas
Nubes Nublado 8500 ft
Punto de rocío 64 ° F
Humedad 89%
Precipitaciones 0.00 pul
Espesor de la nieve No disponible.
UV 0 de una escala de 12
Polen 6.30 de una escala de 12
Calidad del aire No disponible.
Flu Activity No disponible.
METAR KLBL 281215Z AUTO 25008KT 10SM OVC085 21/14 A3035 RMK AO1

More Conditions Fewer Conditions

Presión 30.35 pul
Visibilidad 10.0 Millas
Nubes Nublado 8500 ft
Punto de rocío 64 ° F
Humedad 89%
Precipitaciones 0.00 pul
Espesor de la nieve No disponible.
UV 0 de una escala de 12
Polen 6.30 de una escala de 12
Calidad del aire No disponible.
Flu Activity No disponible.
METAR KLBL 281215Z AUTO 25008KT 10SM OVC085 21/14 A3035 RMK AO1

More Conditions Fewer Conditions

10-Day Weather Forecast

Almanac

Astronomía

Jul. 28, 2014 Salida Puesta
Hora real 6:45 AM CDT 8:55 PM CDT
Crepúsculo civil 6:15 AM CDT 9:24 PM CDT
Crepúsculo náutico 5:39 AM CDT 10:00 PM CDT
Crepúsculo astronómico 5:00 AM CDT 10:39 PM CDT
Luna 8:25 AM CDT 9:42 PM CDT
Horas de luz 15h 09m
Horas de luz
14h 10m
Tomorrow will be 1m 42s shorter.
Luna nueva, 2% of the Moon is Illuminated
Hoy
Luna nueva
Ago 3
Cuarto creciente
Ago 10
Luna llena
Ago 17
Cuarto menguante
Ago 25
Nueva

Extremos de hoy

Máximos del estado Bajos del estado

Community

WunderPhotos

Upload Photos

1,738,311 ¡fotos cargadas!

Nearby

Grosos de nieve

Estación Profundido Altura
No tenemos constancia de nieve nueva.

Actividad de terremotos

Ciudad Distance Mag. Tiempo y dato
No hay informes recientes de la actividad sísmica.
Magnitud mínima muestra es 2,5.

Temperaturas de aguas costeras

Lugar Temperatura
Sin partes meteorológicos de las estaciones

Estaciones meteorológicas cercanas

Ubicación de la estación Temp. Punto de rocío Humedad Viento Precip. Alt Actualizado Tipo
Lobmeyer Seed Farms, Garden City, KS 66.8 ° F 64 ° F 89% SSO  a  0.0 mph 0.00 pul / hr 2890 ft 7:15 AM CDT Normal

Show More Stations Show Fewer Stations